Time;durP1;ratioP1;P1;durP2;ratioP2;P2;SDS_P1;SDS_P2;PMS_P1;PMS_P2;Temp;Humidity;BMP_temperature;BMP_pressure;BME280_temperature;BME280_humidity;BME280_pressure;Samples;Min_cycle;Max_cycle;Signal;HPM_P1;HPM_P2
2021/01/09 00:01:41;;;;;;;2.47;2.27;;;3.20;82.20;;;;;;6122615;23;20474;-82
2021/01/09 00:04:07;;;;;;;2.20;1.90;;;3.20;82.20;;;;;;6122730;23;20010;-83
2021/01/09 00:06:40;;;;;;;2.00;1.80;;;3.20;83.10;;;;;;6145867;23;20013;-81
2021/01/09 00:09:09;;;;;;;1.77;1.67;;;3.10;82.50;;;;;;6146006;23;20010;-82
2021/01/09 00:11:38;;;;;;;3.70;1.93;;;3.10;82.00;;;;;;6146014;23;20094;-82
2021/01/09 00:14:04;;;;;;;1.77;1.67;;;3.10;81.10;;;;;;6144988;23;19998;-81
2021/01/09 00:16:29;;;;;;;2.13;1.93;;;3.10;80.90;;;;;;6145433;23;19998;-80
2021/01/09 00:18:55;;;;;;;1.77;1.67;;;3.10;81.70;;;;;;6146374;23;20009;-82
2021/01/09 00:21:21;;;;;;;1.90;1.63;;;3.10;82.70;;;;;;6122348;23;20053;-81
2021/01/09 00:23:46;;;;;;;3.27;2.03;;;3.10;83.10;;;;;;6145583;23;20104;-82
2021/01/09 00:26:12;;;;;;;2.07;1.87;;;3.10;81.50;;;;;;6121149;23;20316;-82
2021/01/09 00:28:38;;;;;;;2.50;2.30;;;3.10;82.60;;;;;;6144046;23;20346;-82
2021/01/09 00:31:06;;;;;;;2.17;2.07;;;3.10;82.80;;;;;;6120705;23;20009;-81
2021/01/09 00:33:33;;;;;;;2.33;1.93;;;3.10;83.00;;;;;;6144471;23;20073;-81
2021/01/09 00:35:59;;;;;;;2.20;2.00;;;3.10;84.80;;;;;;6120954;23;20438;-82
2021/01/09 00:38:25;;;;;;;2.33;2.00;;;3.00;84.30;;;;;;6144679;23;20434;-82
2021/01/09 00:40:51;;;;;;;2.60;2.07;;;3.00;83.70;;;;;;6145035;23;21003;-82
2021/01/09 00:43:17;;;;;;;4.00;1.87;;;3.00;82.80;;;;;;6122584;23;20002;-81
2021/01/09 00:45:42;;;;;;;1.80;1.70;;;3.00;81.70;;;;;;6146408;23;20010;-82
2021/01/09 00:48:08;;;;;;;2.20;1.83;;;3.10;81.00;;;;;;6122230;23;20006;-82
2021/01/09 00:50:34;;;;;;;2.53;1.93;;;3.10;82.10;;;;;;6121858;23;20013;-82
2021/01/09 00:52:59;;;;;;;1.57;1.47;;;3.10;81.70;;;;;;6124276;23;20021;-81
2021/01/09 00:55:25;;;;;;;2.20;2.00;;;3.10;81.00;;;;;;6125589;23;19998;-81
2021/01/09 00:57:51;;;;;;;1.90;1.80;;;3.10;81.90;;;;;;6125779;23;20399;-81
2021/01/09 01:00:17;;;;;;;2.93;2.60;;;3.10;83.20;;;;;;6147780;23;20010;-81
2021/01/09 01:02:42;;;;;;;2.23;1.87;;;3.00;82.80;;;;;;6140811;23;20092;-81
2021/01/09 01:05:09;;;;;;;2.10;1.90;;;3.10;83.00;;;;;;6144159;23;20033;-81
2021/01/09 01:07:35;;;;;;;2.10;1.87;;;3.00;83.10;;;;;;6122214;23;20069;-80
2021/01/09 01:10:05;;;;;;;2.53;2.33;;;3.00;82.80;;;;;;6145283;23;20006;-80
2021/01/09 01:12:31;;;;;;;2.77;2.00;;;3.00;82.60;;;;;;6122330;23;19998;-81
2021/01/09 01:14:57;;;;;;;2.23;1.80;;;3.00;82.20;;;;;;6146270;23;20006;-81
2021/01/09 01:17:23;;;;;;;2.20;2.00;;;3.00;82.00;;;;;;6145630;23;20431;-80
2021/01/09 01:19:48;;;;;;;2.30;2.10;;;3.00;81.30;;;;;;6145456;23;20053;-81
2021/01/09 01:22:14;;;;;;;3.07;2.77;;;3.00;81.10;;;;;;6145979;23;20002;-81
2021/01/09 01:24:39;;;;;;;3.07;2.17;;;3.00;81.50;;;;;;6145526;23;20007;-81
2021/01/09 01:27:05;;;;;;;2.67;2.47;;;3.10;80.20;;;;;;6121669;23;20006;-80
2021/01/09 01:29:31;;;;;;;3.03;2.20;;;3.10;79.90;;;;;;6122846;23;20002;-80
2021/01/09 01:32:00;;;;;;;2.33;2.13;;;3.10;80.60;;;;;;6145471;23;20013;-80
2021/01/09 01:34:25;;;;;;;2.13;2.03;;;3.10;80.10;;;;;;6145764;23;20013;-81
2021/01/09 01:36:52;;;;;;;2.23;2.03;;;3.10;79.20;;;;;;6146091;23;20037;-81
2021/01/09 01:39:18;;;;;;;3.20;2.13;;;3.10;79.80;;;;;;6145488;23;20041;-81
2021/01/09 01:41:45;;;;;;;1.97;1.77;;;3.10;79.70;;;;;;6146462;23;20044;-80
2021/01/09 01:44:11;;;;;;;1.83;1.60;;;3.20;78.60;;;;;;6147777;23;20010;-81
2021/01/09 01:46:38;;;;;;;1.70;1.60;;;3.10;78.60;;;;;;6147213;23;20022;-81
2021/01/09 01:49:08;;;;;;;2.33;2.00;;;3.20;78.30;;;;;;6126665;23;20002;-81
2021/01/09 01:51:33;;;;;;;2.17;1.97;;;3.20;77.90;;;;;;6125793;23;20010;-81
2021/01/09 01:53:59;;;;;;;2.57;2.00;;;3.20;79.10;;;;;;6144223;23;20006;-80
2021/01/09 01:56:26;;;;;;;3.23;2.70;;;3.20;79.50;;;;;;6147904;23;20447;-81
2021/01/09 01:58:52;;;;;;;4.77;2.47;;;3.10;78.60;;;;;;6124382;23;20505;-81
2021/01/09 02:01:19;;;;;;;2.93;2.57;;;3.10;76.50;;;;;;6124166;23;20002;-80
2021/01/09 02:03:45;;;;;;;3.60;2.53;;;3.10;76.20;;;;;;6148055;23;20312;-81
2021/01/09 02:06:15;;;;;;;3.10;2.80;;;3.20;75.80;;;;;;6124012;23;20005;-81
2021/01/09 02:09:00;;;;;;;3.10;2.63;;;3.10;77.50;;;;;;6146762;23;20010;-81
2021/01/09 02:11:41;;;;;;;2.20;2.00;;;3.10;76.70;;;;;;6123810;23;19998;-81
2021/01/09 02:14:14;;;;;;;4.05;2.40;;;3.10;75.90;;;;;;6147163;23;20056;-80
2021/01/09 02:16:42;;;;;;;1.60;1.50;;;3.10;76.70;;;;;;6146929;23;20002;-80
2021/01/09 02:19:08;;;;;;;1.80;1.70;;;3.10;76.10;;;;;;6123823;23;20013;-81
2021/01/09 02:21:40;;;;;;;3.27;2.07;;;3.10;77.00;;;;;;6147689;23;20009;-81
2021/01/09 02:24:17;;;;;;;3.50;2.33;;;3.10;76.70;;;;;;6124327;23;20025;-81
2021/01/09 02:26:44;;;;;;;1.70;1.60;;;3.10;76.20;;;;;;6122864;23;20466;-81
2021/01/09 02:29:12;;;;;;;2.20;2.10;;;3.10;76.00;;;;;;6123979;23;20006;-81
2021/01/09 02:32:06;;;;;;;2.53;2.33;;;3.10;75.50;;;;;;6147330;23;20009;-80
2021/01/09 02:34:50;;;;;;;2.80;2.57;;;3.10;75.40;;;;;;6124133;23;20677;-81
2021/01/09 02:37:16;;;;;;;1.70;1.60;;;3.10;75.90;;;;;;6122596;23;20002;-81
2021/01/09 02:39:42;;;;;;;2.40;2.20;;;3.00;76.20;;;;;;6146799;23;20016;-80
2021/01/09 02:42:08;;;;;;;1.80;1.70;;;3.10;75.30;;;;;;6146701;23;20347;-80
2021/01/09 02:44:34;;;;;;;3.20;1.80;;;3.10;75.80;;;;;;6147547;23;20503;-81
2021/01/09 02:47:00;;;;;;;2.50;2.03;;;3.00;76.10;;;;;;6146604;23;20018;-81
2021/01/09 02:49:26;;;;;;;2.80;2.13;;;3.00;77.10;;;;;;6122652;23;20006;-81
2021/01/09 02:51:51;;;;;;;2.40;2.20;;;3.00;77.20;;;;;;6146819;23;20006;-81
2021/01/09 02:54:17;;;;;;;2.33;2.13;;;3.00;77.40;;;;;;6146605;23;20454;-80
2021/01/09 02:56:43;;;;;;;2.97;2.10;;;3.00;76.20;;;;;;6147406;23;20438;-80
2021/01/09 02:59:08;;;;;;;2.27;1.67;;;2.90;77.00;;;;;;6123866;23;20002;-80
2021/01/09 03:01:34;;;;;;;2.60;2.40;;;2.90;77.20;;;;;;6146770;23;20020;-81
2021/01/09 03:04:00;;;;;;;2.30;1.50;;;2.90;76.50;;;;;;6147417;23;20016;-80
2021/01/09 03:06:26;;;;;;;2.07;1.70;;;2.90;75.90;;;;;;6146747;23;20400;-81
2021/01/09 03:08:53;;;;;;;2.40;1.50;;;2.90;76.00;;;;;;6121694;23;20765;-80
2021/01/09 03:11:19;;;;;;;2.20;1.63;;;2.90;75.80;;;;;;6147070;23;20009;-81
2021/01/09 03:14:03;;;;;;;2.83;1.73;;;3.00;76.50;;;;;;6146498;23;20005;-80
2021/01/09 03:16:29;;;;;;;1.33;1.13;;;2.90;76.60;;;;;;6124009;23;20052;-80
2021/01/09 03:18:55;;;;;;;1.70;1.60;;;2.90;76.90;;;;;;6123490;23;20333;-81
2021/01/09 03:21:22;;;;;;;1.60;1.50;;;2.90;75.20;;;;;;6146928;23;20009;-80
2021/01/09 03:23:47;;;;;;;2.73;2.13;;;2.90;74.80;;;;;;6122444;23;20014;-80
2021/01/09 03:26:13;;;;;;;3.53;1.80;;;2.90;75.40;;;;;;6123583;23;19998;-80
2021/01/09 03:28:39;;;;;;;2.23;1.87;;;2.90;75.30;;;;;;6148249;23;20010;-78
2021/01/09 03:31:05;;;;;;;1.33;1.23;;;2.80;74.30;;;;;;6149319;23;20002;-78
2021/01/09 03:33:31;;;;;;;1.77;1.40;;;2.90;73.90;;;;;;6126359;23;20009;-79
2021/01/09 03:35:56;;;;;;;2.00;1.33;;;2.90;73.80;;;;;;6149400;23;20335;-78
2021/01/09 03:38:22;;;;;;;1.60;1.50;;;2.90;73.60;;;;;;6124565;23;20143;-78
2021/01/09 03:40:48;;;;;;;1.63;1.50;;;2.90;72.60;;;;;;6126225;23;20008;-78
2021/01/09 03:43:14;;;;;;;2.40;1.33;;;2.90;72.90;;;;;;6149552;23;20391;-78
2021/01/09 03:45:39;;;;;;;1.73;1.63;;;3.00;73.80;;;;;;6126104;23;20013;-78
2021/01/09 03:48:06;;;;;;;1.10;1.10;;;3.00;72.50;;;;;;6125520;23;20006;-78
2021/01/09 03:50:31;;;;;;;3.80;1.40;;;3.00;72.00;;;;;;6123749;23;20006;-78
2021/01/09 03:52:57;;;;;;;1.60;1.50;;;2.90;71.80;;;;;;6123868;23;20042;-78
2021/01/09 03:55:23;;;;;;;2.13;1.53;;;2.90;71.70;;;;;;6123726;23;20006;-78
2021/01/09 03:57:48;;;;;;;1.63;1.53;;;2.90;71.70;;;;;;6125243;23;20010;-78
2021/01/09 04:00:14;;;;;;;2.83;2.33;;;2.90;72.20;;;;;;6123880;23;20431;-78
2021/01/09 04:02:40;;;;;;;3.77;1.97;;;2.90;73.40;;;;;;6125301;23;20385;-78
2021/01/09 04:05:19;;;;;;;2.20;2.00;;;2.90;74.80;;;;;;5125287;27;20361;-78
2021/01/09 04:07:44;;;;;;;1.60;1.50;;;2.80;75.50;;;;;;5109583;28;20067;-78
2021/01/09 04:10:10;;;;;;;1.87;1.67;;;2.70;75.40;;;;;;5110050;28;20023;-78
2021/01/09 04:12:36;;;;;;;3.73;2.00;;;2.70;74.30;;;;;;5109506;28;20019;-78
2021/01/09 04:15:03;;;;;;;1.70;1.60;;;2.70;73.90;;;;;;5109827;28;20620;-78
2021/01/09 04:17:29;;;;;;;1.77;1.67;;;2.70;73.50;;;;;;5110170;28;20073;-78
2021/01/09 04:19:55;;;;;;;1.90;1.80;;;2.80;73.20;;;;;;5109815;28;20031;-78
2021/01/09 04:22:20;;;;;;;1.63;1.37;;;2.80;73.20;;;;;;5128306;28;20068;-79
2021/01/09 04:24:46;;;;;;;3.30;1.40;;;2.80;72.70;;;;;;5109894;28;20023;-78
2021/01/09 04:27:12;;;;;;;1.50;1.40;;;2.80;72.40;;;;;;5144258;27;20141;-78
2021/01/09 04:29:37;;;;;;;1.40;1.30;;;2.80;72.80;;;;;;5128575;28;20015;-78
2021/01/09 04:32:03;;;;;;;1.50;1.40;;;2.80;73.10;;;;;;5144306;27;20026;-78
2021/01/09 04:34:29;;;;;;;3.60;1.47;;;2.90;72.00;;;;;;5144031;27;20114;-78
2021/01/09 04:36:55;;;;;;;3.30;1.23;;;2.90;71.90;;;;;;5110256;28;20160;-78
2021/01/09 04:39:20;;;;;;;1.40;1.30;;;2.90;71.80;;;;;;5109666;28;20077;-78
2021/01/09 04:41:47;;;;;;;2.17;1.33;;;2.90;71.00;;;;;;5127810;28;20030;-78
2021/01/09 04:44:13;;;;;;;2.77;1.80;;;2.90;71.20;;;;;;5128041;28;20020;-78
2021/01/09 04:46:54;;;;;;;1.93;1.60;;;2.90;70.30;;;;;;5109305;28;20050;-78
2021/01/09 04:49:27;;;;;;;1.63;1.20;;;2.80;71.00;;;;;;5127998;28;20107;-78
2021/01/09 04:51:54;;;;;;;2.27;1.73;;;2.80;71.60;;;;;;5109551;28;20053;-78
2021/01/09 04:54:21;;;;;;;1.27;1.20;;;2.80;71.50;;;;;;5108884;28;20084;-78
2021/01/09 04:56:50;;;;;;;1.40;1.30;;;2.80;71.10;;;;;;5128344;28;20027;-78
2021/01/09 04:59:17;;;;;;;1.43;1.43;;;2.80;70.80;;;;;;5127799;28;20034;-78
2021/01/09 05:01:45;;;;;;;2.60;1.13;;;2.80;71.20;;;;;;5109009;28;20077;-78
2021/01/09 05:04:11;;;;;;;1.13;1.13;;;2.80;71.30;;;;;;5127594;28;20053;-78
2021/01/09 05:06:38;;;;;;;1.30;1.20;;;2.80;70.40;;;;;;5127956;28;20019;-78
2021/01/09 05:09:05;;;;;;;2.23;1.80;;;2.80;70.00;;;;;;5109095;28;20422;-78
2021/01/09 05:11:38;;;;;;;1.40;1.20;;;2.80;69.60;;;;;;5108986;28;20560;-78
2021/01/09 05:14:05;;;;;;;1.33;1.23;;;2.80;70.10;;;;;;5109560;28;20020;-81
2021/01/09 05:16:31;;;;;;;1.40;1.30;;;2.90;69.50;;;;;;5096581;28;20688;-81
2021/01/09 05:18:57;;;;;;;2.80;1.40;;;2.80;69.50;;;;;;5095372;28;20114;-81
2021/01/09 05:21:24;;;;;;;2.10;1.27;;;2.80;69.60;;;;;;5129803;27;20020;-82
2021/01/09 05:23:58;;;;;;;1.00;0.90;;;2.90;69.40;;;;;;5095542;28;20034;-81
2021/01/09 05:26:24;;;;;;;1.03;1.00;;;2.90;69.70;;;;;;5095486;28;20027;-81
2021/01/09 05:29:00;;;;;;;1.10;1.10;;;2.90;70.20;;;;;;5113906;28;20022;-80
2021/01/09 05:31:28;;;;;;;1.30;1.20;;;2.90;69.30;;;;;;5113733;28;20024;-81
2021/01/09 05:33:54;;;;;;;1.47;1.20;;;2.90;69.80;;;;;;5095623;28;20028;-81
2021/01/09 05:36:21;;;;;;;4.13;1.20;;;2.90;70.40;;;;;;5095217;28;20031;-81
2021/01/09 05:38:48;;;;;;;1.43;1.30;;;2.90;69.70;;;;;;5113253;28;20031;-80
2021/01/09 05:41:17;;;;;;;2.90;1.43;;;2.90;69.70;;;;;;5113725;28;20028;-81
2021/01/09 05:44:00;;;;;;;1.20;1.10;;;2.90;69.20;;;;;;5094755;28;20581;-81
2021/01/09 05:46:31;;;;;;;1.30;1.20;;;2.90;69.80;;;;;;5095401;28;20031;-81
2021/01/09 05:48:57;;;;;;;4.30;1.53;;;2.90;69.80;;;;;;5109820;28;20031;-81
2021/01/09 05:51:24;;;;;;;1.50;1.40;;;2.90;69.60;;;;;;5094671;28;20024;-80
2021/01/09 05:53:50;;;;;;;2.13;1.40;;;2.90;70.50;;;;;;5111577;27;20023;-81
2021/01/09 05:56:18;;;;;;;1.27;1.17;;;2.90;69.70;;;;;;5114029;27;20031;-81
2021/01/09 05:58:44;;;;;;;1.50;1.33;;;2.90;69.70;;;;;;5094888;28;20034;-81
2021/01/09 06:01:13;;;;;;;1.50;1.40;;;2.90;69.10;;;;;;5095130;28;20058;-81
2021/01/09 06:03:47;;;;;;;1.80;1.40;;;2.90;69.60;;;;;;5094444;28;20513;-81
2021/01/09 06:06:27;;;;;;;1.33;1.23;;;2.90;69.20;;;;;;5094374;28;20405;-81
2021/01/09 06:08:58;;;;;;;1.60;1.50;;;2.90;69.50;;;;;;5111653;28;20016;-82
2021/01/09 06:11:34;;;;;;;1.33;1.23;;;2.90;69.30;;;;;;5111259;28;20492;-81
2021/01/09 06:14:01;;;;;;;1.20;1.07;;;2.90;68.60;;;;;;5112053;28;20024;-81
2021/01/09 06:16:31;;;;;;;1.40;1.30;;;2.90;69.30;;;;;;5112532;28;20106;-80
2021/01/09 06:18:58;;;;;;;2.23;1.40;;;2.90;69.50;;;;;;5112976;28;20024;-81
2021/01/09 06:21:28;;;;;;;1.60;1.50;;;2.90;69.50;;;;;;5094095;28;20031;-81
2021/01/09 06:23:58;;;;;;;2.30;1.60;;;2.90;69.70;;;;;;5094096;28;20114;-81
2021/01/09 06:26:25;;;;;;;1.70;1.60;;;2.80;69.90;;;;;;5112194;28;20102;-80
2021/01/09 06:29:04;;;;;;;1.27;1.27;;;2.80;70.10;;;;;;5112567;28;20078;-81
2021/01/09 06:31:30;;;;;;;2.27;1.30;;;2.80;70.40;;;;;;5112948;28;20023;-80
2021/01/09 06:34:00;;;;;;;1.50;1.40;;;2.80;69.90;;;;;;5093963;28;20051;-81
2021/01/09 06:36:26;;;;;;;2.30;1.50;;;2.80;70.10;;;;;;5112273;28;20088;-80
2021/01/09 06:38:57;;;;;;;1.23;1.13;;;2.80;70.70;;;;;;5112652;28;20429;-80
2021/01/09 06:41:30;;;;;;;1.83;1.40;;;2.80;71.40;;;;;;5112295;28;20027;-81
2021/01/09 06:43:55;;;;;;;1.67;1.57;;;2.80;71.00;;;;;;5127437;27;20661;-80
2021/01/09 06:46:33;;;;;;;1.40;1.30;;;2.70;70.90;;;;;;5093680;28;20062;-80
2021/01/09 06:48:59;;;;;;;1.63;1.50;;;2.70;71.70;;;;;;5093711;28;20047;-80
2021/01/09 06:51:41;;;;;;;1.40;1.30;;;2.70;72.20;;;;;;5094261;28;20020;-81
2021/01/09 06:54:16;;;;;;;1.60;1.50;;;2.70;70.40;;;;;;5094077;28;20047;-82
2021/01/09 06:56:46;;;;;;;1.40;1.30;;;2.70;69.90;;;;;;5112400;28;20416;-81
2021/01/09 06:59:31;;;;;;;1.93;1.50;;;2.70;70.50;;;;;;5111775;28;20031;-81
2021/01/09 07:02:21;;;;;;;1.67;1.23;;;2.70;70.40;;;;;;5083206;28;20055;-81
2021/01/09 07:04:57;;;;;;;1.63;1.53;;;2.70;70.60;;;;;;5111518;28;20051;-81
2021/01/09 07:07:32;;;;;;;1.37;1.27;;;2.70;70.70;;;;;;5073376;28;20028;-82
2021/01/09 07:10:12;;;;;;;1.63;1.53;;;2.70;69.80;;;;;;5073022;28;20020;-81
2021/01/09 07:12:41;;;;;;;4.20;1.60;;;2.70;70.30;;;;;;5072844;28;20020;-81
2021/01/09 07:15:08;;;;;;;1.63;1.40;;;2.70;70.00;;;;;;5091384;28;20107;-81
2021/01/09 07:17:37;;;;;;;2.20;2.00;;;2.70;70.20;;;;;;5078514;28;20065;-81
2021/01/09 07:20:05;;;;;;;1.60;1.50;;;2.70;69.90;;;;;;5111331;28;20031;-80
2021/01/09 07:22:32;;;;;;;1.60;1.50;;;2.80;69.80;;;;;;5093124;28;20069;-81
2021/01/09 07:25:04;;;;;;;1.53;1.43;;;2.80;70.40;;;;;;5111719;28;20393;-81
2021/01/09 07:27:38;;;;;;;1.70;1.60;;;2.80;70.30;;;;;;5093769;28;20560;-82
2021/01/09 07:30:16;;;;;;;1.13;1.10;;;2.80;70.30;;;;;;5093455;28;20111;-81
2021/01/09 07:32:47;;;;;;;3.40;1.70;;;2.80;70.00;;;;;;5093405;28;20019;-81
2021/01/09 07:35:36;;;;;;;2.30;1.45;;;2.80;69.50;;;;;;5092498;28;20114;-81
2021/01/09 07:38:04;;;;;;;1.77;1.67;;;2.80;69.70;;;;;;5092951;28;20039;-81
2021/01/09 07:40:54;;;;;;;1.83;1.37;;;2.80;69.50;;;;;;5092661;28;20023;-81
2021/01/09 07:43:37;;;;;;;2.20;1.73;;;2.80;69.20;;;;;;5098412;28;20106;-80
2021/01/09 07:46:32;;;;;;;2.13;1.80;;;2.80;69.30;;;;;;5110747;28;20012;-81
2021/01/09 07:49:03;;;;;;;2.03;1.83;;;2.90;69.50;;;;;;5093093;28;20032;-82
2021/01/09 07:51:48;;;;;;;4.13;1.97;;;2.90;69.40;;;;;;5092672;28;20677;-81
2021/01/09 07:54:47;;;;;;;2.13;1.90;;;2.90;70.00;;;;;;5110851;28;20423;-78
2021/01/09 07:57:19;;;;;;;2.77;2.07;;;3.00;69.70;;;;;;5090310;28;20035;-78
2021/01/09 07:59:53;;;;;;;1.52;1.42;;;2.90;70.10;;;;;;5081578;28;20027;-78
2021/01/09 08:02:23;;;;;;;1.57;1.47;;;3.00;70.60;;;;;;5092044;28;20028;-78
2021/01/09 08:04:49;;;;;;;2.20;2.10;;;3.00;69.50;;;;;;5092424;28;20046;-78
2021/01/09 08:07:18;;;;;;;2.93;1.67;;;3.00;69.30;;;;;;5092571;28;20057;-78
2021/01/09 08:09:44;;;;;;;1.43;1.33;;;3.00;69.30;;;;;;5110543;28;20028;-78
2021/01/09 08:12:10;;;;;;;3.53;1.60;;;3.00;69.00;;;;;;5126342;28;20073;-78
2021/01/09 08:14:36;;;;;;;1.70;1.60;;;3.10;69.10;;;;;;5092338;28;20056;-78
2021/01/09 08:17:11;;;;;;;1.50;1.40;;;3.10;69.00;;;;;;5104916;28;20542;-77
2021/01/09 08:19:37;;;;;;;2.93;1.60;;;3.20;69.00;;;;;;5092250;28;20034;-78
2021/01/09 08:22:04;;;;;;;2.40;1.57;;;3.20;69.20;;;;;;5092438;28;20023;-78
2021/01/09 08:24:29;;;;;;;2.50;2.07;;;3.30;68.90;;;;;;5092467;28;20024;-78
2021/01/09 08:26:57;;;;;;;1.87;1.77;;;3.30;69.90;;;;;;5091722;28;20469;-78
2021/01/09 08:29:28;;;;;;;1.70;1.60;;;3.40;69.20;;;;;;5091843;28;20024;-78
2021/01/09 08:31:55;;;;;;;3.13;1.43;;;3.40;69.60;;;;;;5102131;28;20024;-78
2021/01/09 08:34:22;;;;;;;1.93;1.83;;;3.50;68.80;;;;;;5091713;28;20027;-78
2021/01/09 08:36:52;;;;;;;1.67;1.23;;;3.50;68.20;;;;;;5092090;28;20035;-78
2021/01/09 08:39:18;;;;;;;2.60;1.70;;;3.60;68.60;;;;;;5092326;28;20035;-79
2021/01/09 08:41:44;;;;;;;1.50;1.40;;;3.60;68.50;;;;;;5091625;28;20031;-78
2021/01/09 08:44:14;;;;;;;1.20;1.10;;;3.70;68.00;;;;;;5092165;28;20469;-77
2021/01/09 08:46:42;;;;;;;1.50;1.40;;;3.70;68.10;;;;;;5092586;28;20031;-78
2021/01/09 08:49:28;;;;;;;1.63;1.30;;;3.70;67.70;;;;;;5125297;28;20396;-78
2021/01/09 08:52:06;;;;;;;1.60;1.50;;;3.70;67.20;;;;;;5123886;27;20027;-78
2021/01/09 08:54:33;;;;;;;1.40;1.30;;;3.80;67.20;;;;;;5118884;27;20085;-78
2021/01/09 08:57:03;;;;;;;1.50;1.40;;;3.80;67.30;;;;;;5114297;28;20051;-78
2021/01/09 08:59:29;;;;;;;3.08;1.50;;;3.80;68.10;;;;;;5095446;28;20034;-78
2021/01/09 09:02:01;;;;;;;1.90;1.80;;;3.90;68.10;;;;;;5095265;28;20036;-78
2021/01/09 09:04:28;;;;;;;1.73;1.63;;;3.90;67.60;;;;;;5095798;27;21003;-79
2021/01/09 09:06:58;;;;;;;2.20;2.00;;;4.00;66.70;;;;;;5101129;28;20019;-78
2021/01/09 09:09:27;;;;;;;4.03;2.00;;;4.00;67.40;;;;;;5095082;28;20066;-78
2021/01/09 09:11:53;;;;;;;1.50;1.33;;;4.00;66.80;;;;;;5113864;28;20030;-78
2021/01/09 09:14:19;;;;;;;2.53;2.10;;;4.10;66.10;;;;;;5095989;28;20381;-78
2021/01/09 09:16:45;;;;;;;1.77;1.67;;;4.20;65.80;;;;;;5095462;28;20019;-78
2021/01/09 09:19:16;;;;;;;1.25;1.20;;;4.20;65.60;;;;;;5095571;28;20043;-77
2021/01/09 09:21:45;;;;;;;5.40;1.48;;;4.80;86.70;;;;;;5129220;27;21189;-78
2021/01/09 09:24:12;;;;;;;5.70;1.85;;;5.20;81.50;;;;;;5095291;28;20691;-79
2021/01/09 09:26:38;;;;;;;1.77;1.67;;;5.60;81.70;;;;;;5113218;28;20427;-78
2021/01/09 09:29:05;;;;;;;5.50;1.58;;;5.70;77.00;;;;;;5113682;28;20381;-78
2021/01/09 09:31:41;;;;;;;1.45;1.35;;;5.80;76.00;;;;;;5095073;28;20023;-79
2021/01/09 09:34:15;;;;;;;4.85;2.50;;;6.00;73.60;;;;;;5094598;28;20672;-78
2021/01/09 09:36:58;;;;;;;7.20;3.60;;;6.00;70.00;;;;;;5094136;28;20024;-78
2021/01/09 09:39:25;;;;;;;7.28;4.10;;;6.30;72.20;;;;;;5096992;28;20039;-79
2021/01/09 09:41:53;;;;;;;5.03;2.90;;;6.30;70.20;;;;;;5094602;28;20032;-78
2021/01/09 09:44:21;;;;;;;3.20;2.40;;;6.30;70.20;;;;;;5115432;28;20073;-78
2021/01/09 09:46:49;;;;;;;3.15;2.47;;;6.40;68.70;;;;;;5096930;28;20036;-78
2021/01/09 09:49:15;;;;;;;2.30;2.10;;;6.40;68.00;;;;;;5097139;28;20370;-81
2021/01/09 09:51:41;;;;;;;3.22;2.80;;;6.40;67.70;;;;;;5097486;28;20122;-81
2021/01/09 09:54:06;;;;;;;3.03;2.72;;;6.50;65.80;;;;;;5115314;28;20597;-80
2021/01/09 09:56:41;;;;;;;7.95;4.60;;;6.40;64.80;;;;;;5097161;28;20035;-81
2021/01/09 09:59:09;;;;;;;7.30;4.80;;;6.40;65.50;;;;;;5097235;28;20122;-81
2021/01/09 10:01:35;;;;;;;7.00;5.10;;;6.40;64.10;;;;;;5097136;28;20031;-80
2021/01/09 10:04:07;;;;;;;5.25;3.85;;;6.40;63.20;;;;;;5092752;28;20143;-78
2021/01/09 10:06:37;;;;;;;8.75;6.20;;;6.30;63.70;;;;;;5094241;28;20026;-76
2021/01/09 10:09:12;;;;;;;18.63;10.43;;;6.50;64.20;;;;;;5112656;28;21293;-76
2021/01/09 10:11:39;;;;;;;22.95;11.95;;;6.40;64.30;;;;;;5094434;28;20426;-79
2021/01/09 10:14:05;;;;;;;31.00;16.80;;;6.60;65.00;;;;;;5112582;28;20024;-78
2021/01/09 10:16:32;;;;;;;38.05;16.73;;;6.70;64.20;;;;;;5094899;28;20046;-78
2021/01/09 10:18:58;;;;;;;83.50;35.83;;;6.70;64.30;;;;;;5094366;28;20058;-78
2021/01/09 10:21:28;;;;;;;57.88;27.02;;;6.70;62.40;;;;;;5112400;28;20020;-78
2021/01/09 10:23:56;;;;;;;68.35;29.05;;;6.70;63.50;;;;;;5094375;28;20019;-78
2021/01/09 10:26:29;;;;;;;51.70;23.48;;;6.70;62.30;;;;;;5094218;28;20307;-79
2021/01/09 10:28:56;;;;;;;37.53;16.10;;;6.70;62.50;;;;;;5094039;28;20565;-78
2021/01/09 10:31:32;;;;;;;40.55;19.60;;;6.70;62.00;;;;;;5117493;27;20030;-79
2021/01/09 10:33:58;;;;;;;17.05;8.95;;;6.80;63.60;;;;;;5120539;27;20597;-78
2021/01/09 10:36:26;;;;;;;21.77;11.50;;;6.80;61.60;;;;;;5093963;28;20023;-78
2021/01/09 10:38:52;;;;;;;17.65;9.23;;;6.90;64.30;;;;;;5111866;28;20043;-78
2021/01/09 10:41:18;;;;;;;12.25;7.22;;;7.00;63.40;;;;;;5092915;28;20030;-78
2021/01/09 10:43:44;;;;;;;9.00;5.50;;;7.00;62.50;;;;;;5112038;28;20456;-78
2021/01/09 10:46:10;;;;;;;9.80;5.75;;;7.10;63.80;;;;;;5111645;28;20020;-79
2021/01/09 10:48:35;;;;;;;8.00;4.97;;;7.10;63.40;;;;;;5093564;28;20054;-79
2021/01/09 10:51:01;;;;;;;5.93;3.70;;;7.20;63.70;;;;;;5096547;27;20053;-78
2021/01/09 10:53:26;;;;;;;4.15;3.60;;;7.20;63.40;;;;;;5117978;27;20020;-79
2021/01/09 10:55:56;;;;;;;5.18;3.47;;;7.30;62.90;;;;;;5093906;28;20039;-78
2021/01/09 10:58:22;;;;;;;5.40;3.90;;;7.30;61.80;;;;;;5094010;28;20064;-78
2021/01/09 11:00:47;;;;;;;5.20;3.60;;;7.30;63.60;;;;;;5111821;28;20027;-78
2021/01/09 11:03:13;;;;;;;4.85;2.55;;;7.40;61.90;;;;;;5125670;27;20107;-79
2021/01/09 11:05:44;;;;;;;3.83;2.33;;;7.40;62.00;;;;;;5127323;27;20030;-78
2021/01/09 11:08:10;;;;;;;2.63;1.93;;;7.40;60.00;;;;;;5093773;28;20056;-78
2021/01/09 11:10:36;;;;;;;2.30;2.10;;;7.40;59.60;;;;;;5110575;28;20265;-78
2021/01/09 11:13:02;;;;;;;2.20;2.00;;;7.40;60.80;;;;;;5092284;28;20023;-78
2021/01/09 11:15:27;;;;;;;2.40;2.20;;;7.50;59.30;;;;;;5111171;28;20023;-78
2021/01/09 11:17:53;;;;;;;4.47;3.03;;;7.50;58.90;;;;;;5092770;28;20069;-78
2021/01/09 11:20:18;;;;;;;3.33;2.00;;;7.50;59.30;;;;;;5092895;28;20027;-77
2021/01/09 11:22:45;;;;;;;3.33;3.00;;;7.50;58.90;;;;;;5092397;28;20027;-78
2021/01/09 11:25:11;;;;;;;2.92;2.63;;;7.50;59.30;;;;;;5110272;28;20213;-78
2021/01/09 11:27:36;;;;;;;3.83;2.17;;;7.40;57.50;;;;;;5133720;27;20708;-78
2021/01/09 11:30:03;;;;;;;2.35;2.15;;;7.30;59.40;;;;;;5114062;27;20110;-78
2021/01/09 11:32:28;;;;;;;4.63;2.17;;;7.40;61.20;;;;;;5089908;28;20077;-78
2021/01/09 11:34:54;;;;;;;1.50;1.40;;;7.40;59.80;;;;;;5095250;27;20028;-78
2021/01/09 11:37:23;;;;;;;2.65;2.42;;;7.40;59.30;;;;;;5114631;27;20088;-80
2021/01/09 11:39:49;;;;;;;6.25;4.75;;;7.50;60.80;;;;;;5102439;27;20418;-81
2021/01/09 11:42:14;;;;;;;2.78;2.55;;;7.40;59.70;;;;;;5130942;27;20057;-80
2021/01/09 11:44:40;;;;;;;3.58;2.35;;;7.40;61.60;;;;;;5130518;27;20027;-80
2021/01/09 11:47:06;;;;;;;2.67;2.17;;;7.40;61.40;;;;;;5112791;27;20030;-78
2021/01/09 11:49:32;;;;;;;2.00;1.80;;;7.40;62.00;;;;;;5142737;27;20028;-78
2021/01/09 11:52:01;;;;;;;2.55;1.85;;;7.50;62.70;;;;;;5115249;27;20080;-78
2021/01/09 11:54:27;;;;;;;1.98;1.50;;;7.60;62.00;;;;;;5116715;27;20061;-78
2021/01/09 11:56:57;;;;;;;1.70;1.60;;;7.60;60.80;;;;;;5109421;28;20118;-78
2021/01/09 11:59:23;;;;;;;1.70;1.60;;;7.50;59.40;;;;;;5092008;28;20038;-78
2021/01/09 12:01:49;;;;;;;1.60;1.50;;;7.60;60.10;;;;;;5113373;28;20126;-82
2021/01/09 12:04:24;;;;;;;2.08;1.55;;;7.50;60.10;;;;;;5091489;28;20051;-81
2021/01/09 12:06:55;;;;;;;1.80;1.70;;;7.50;59.40;;;;;;5106064;28;20019;-80
2021/01/09 12:09:20;;;;;;;2.90;1.85;;;7.60;59.90;;;;;;5097059;28;20035;-81
2021/01/09 12:11:59;;;;;;;1.98;1.70;;;7.50;59.00;;;;;;5096931;28;20024;-80
2021/01/09 12:14:25;;;;;;;1.90;1.80;;;7.60;59.20;;;;;;5091466;28;20023;-79
2021/01/09 12:16:51;;;;;;;3.17;1.85;;;7.40;59.20;;;;;;5110632;28;20377;-83
2021/01/09 12:19:16;;;;;;;2.72;2.00;;;7.40;60.00;;;;;;5091284;28;20636;-82
2021/01/09 12:21:42;;;;;;;2.25;2.05;;;7.50;61.60;;;;;;5110714;28;20030;-78
2021/01/09 12:24:08;;;;;;;3.05;1.70;;;7.40;60.50;;;;;;5091858;28;20106;-81
2021/01/09 12:26:34;;;;;;;2.63;1.75;;;7.50;61.00;;;;;;5112761;28;20103;-82
2021/01/09 12:29:00;;;;;;;1.90;1.73;;;7.50;63.30;;;;;;5108681;27;20043;-83
2021/01/09 12:31:33;;;;;;;3.80;2.30;;;7.60;63.00;;;;;;5123048;27;20493;-81
2021/01/09 12:34:00;;;;;;;2.53;2.20;;;7.60;62.20;;;;;;5103403;28;20015;-80
2021/01/09 12:36:26;;;;;;;1.83;1.73;;;7.70;62.60;;;;;;5114391;28;20031;-82
2021/01/09 12:38:52;;;;;;;2.47;2.15;;;7.80;63.30;;;;;;5114321;28;20106;-81
2021/01/09 12:41:17;;;;;;;2.75;2.40;;;7.70;63.00;;;;;;5114493;28;20499;-79
2021/01/09 12:43:43;;;;;;;2.55;2.35;;;7.80;62.90;;;;;;5096462;28;20036;-79
2021/01/09 12:46:09;;;;;;;7.72;2.50;;;7.80;62.70;;;;;;5095497;28;20426;-80
2021/01/09 12:48:35;;;;;;;3.17;2.67;;;7.80;64.30;;;;;;5096356;28;20032;-80
2021/01/09 12:51:01;;;;;;;4.07;3.13;;;7.60;62.10;;;;;;5096210;28;20024;-80
2021/01/09 12:53:28;;;;;;;6.07;2.97;;;7.50;62.40;;;;;;5113955;28;20031;-80
2021/01/09 12:56:07;;;;;;;4.05;2.67;;;7.30;61.90;;;;;;5096068;28;20477;-79
2021/01/09 12:58:32;;;;;;;5.18;3.33;;;7.30;62.50;;;;;;5095911;28;20128;-79
2021/01/09 13:00:58;;;;;;;2.88;2.60;;;7.10;62.10;;;;;;5114265;28;20032;-80
2021/01/09 13:03:24;;;;;;;4.10;2.67;;;7.00;62.40;;;;;;5113529;28;20023;-80